createdAt,value
2017-08-21T00:00:49.236Z,99.90
2017-08-21T00:03:17.492Z,99.90
2017-08-21T00:05:45.788Z,99.90
2017-08-21T00:08:14.055Z,99.90
2017-08-21T00:10:42.342Z,99.90
2017-08-21T00:13:10.593Z,99.90
2017-08-21T00:15:39.016Z,99.90
2017-08-21T00:18:07.288Z,99.90
2017-08-21T00:20:35.551Z,99.90
2017-08-21T00:23:03.825Z,99.90
2017-08-21T00:25:32.084Z,99.90
2017-08-21T00:28:00.501Z,99.90
2017-08-21T00:30:28.763Z,99.90
2017-08-21T00:32:57.101Z,99.90
2017-08-21T00:35:25.352Z,99.90
2017-08-21T00:37:54.424Z,99.90
2017-08-21T00:40:22.691Z,99.90
2017-08-21T00:42:51.089Z,99.90
2017-08-21T00:45:19.346Z,99.90
2017-08-21T00:47:47.650Z,99.90
2017-08-21T00:50:15.940Z,99.90
2017-08-21T00:52:44.212Z,99.90
2017-08-21T00:55:13.295Z,99.90
2017-08-21T00:57:41.551Z,99.90
2017-08-21T01:00:09.834Z,99.90
2017-08-21T01:02:38.124Z,99.90
2017-08-21T01:05:06.495Z,99.90
2017-08-21T01:07:34.745Z,99.90
2017-08-21T01:10:03.052Z,99.90
2017-08-21T01:12:31.425Z,99.90
2017-08-21T01:14:59.693Z,99.90
2017-08-21T01:17:28.085Z,99.90
2017-08-21T01:19:56.368Z,99.90
2017-08-21T01:22:24.746Z,99.90
2017-08-21T01:24:53.019Z,99.90
2017-08-21T01:27:21.308Z,99.90
2017-08-21T01:29:49.673Z,99.90
2017-08-21T01:32:18.073Z,99.90
2017-08-21T01:34:46.333Z,99.90
2017-08-21T01:37:14.604Z,99.90
2017-08-21T01:39:42.990Z,99.90
2017-08-21T01:42:11.265Z,99.90
2017-08-21T01:44:39.649Z,99.90
2017-08-21T01:47:07.931Z,99.90
2017-08-21T01:49:36.311Z,99.90
2017-08-21T01:52:04.564Z,99.90
2017-08-21T01:54:32.952Z,99.90
2017-08-21T01:57:01.250Z,99.90
2017-08-21T01:59:29.533Z,99.90
2017-08-21T02:01:57.882Z,99.90
2017-08-21T02:04:26.277Z,99.90
2017-08-21T02:06:54.536Z,99.90
2017-08-21T02:09:22.842Z,99.90
2017-08-21T02:11:51.116Z,99.90
2017-08-21T02:14:19.487Z,99.90
2017-08-21T02:16:47.900Z,99.90
2017-08-21T02:19:16.954Z,99.90
2017-08-21T02:21:45.338Z,99.90
2017-08-21T02:24:13.717Z,99.90
2017-08-21T02:26:42.020Z,99.90
2017-08-21T02:29:11.063Z,99.90
2017-08-21T02:31:39.370Z,99.90
2017-08-21T02:34:07.745Z,99.90
2017-08-21T02:36:36.040Z,99.90
2017-08-21T02:39:05.095Z,99.90
2017-08-21T02:41:33.362Z,99.90
2017-08-21T02:44:01.656Z,99.90
2017-08-21T02:46:29.948Z,99.90
2017-08-21T02:48:58.322Z,99.90
2017-08-21T02:51:26.698Z,99.90
2017-08-21T02:53:54.990Z,99.90
2017-08-21T02:56:23.368Z,99.90
2017-08-21T02:58:51.644Z,99.90
2017-08-21T03:01:19.954Z,99.90
2017-08-21T03:03:48.978Z,99.90
2017-08-21T03:06:17.281Z,99.90
2017-08-21T03:08:45.578Z,99.90
2017-08-21T03:11:13.856Z,99.90
2017-08-21T03:13:42.934Z,99.90
2017-08-21T03:16:11.237Z,99.90
2017-08-21T03:18:40.324Z,99.90
2017-08-21T03:21:08.574Z,99.90
2017-08-21T03:23:36.970Z,99.90
2017-08-21T03:26:05.244Z,99.90
2017-08-21T03:28:33.525Z,99.90
2017-08-21T03:31:01.810Z,99.90
2017-08-21T03:33:30.182Z,99.90
2017-08-21T03:35:58.481Z,99.90
2017-08-21T03:38:27.554Z,99.90
2017-08-21T03:40:55.818Z,99.90
2017-08-21T03:43:24.100Z,99.90
2017-08-21T03:45:52.475Z,99.90
2017-08-21T03:48:20.740Z,99.90
2017-08-21T03:50:49.028Z,99.90
2017-08-21T03:53:17.389Z,99.90
2017-08-21T03:55:45.647Z,99.90
2017-08-21T03:58:13.936Z,99.90
2017-08-21T04:00:42.316Z,99.90
2017-08-21T04:03:10.595Z,99.90
2017-08-21T04:05:38.975Z,99.90
2017-08-21T04:08:07.257Z,99.90
2017-08-21T04:10:35.552Z,99.90
2017-08-21T04:13:03.828Z,99.90
2017-08-21T04:15:32.898Z,99.90
2017-08-21T04:18:01.201Z,99.90
2017-08-21T04:20:29.454Z,99.90
2017-08-21T04:22:57.831Z,99.90
2017-08-21T04:25:26.118Z,99.90
2017-08-21T04:27:54.504Z,99.90
2017-08-21T04:30:22.774Z,99.90
2017-08-21T04:32:51.053Z,99.90
2017-08-21T04:35:19.355Z,99.90
2017-08-21T04:37:48.416Z,99.90
2017-08-21T04:40:16.816Z,99.90
2017-08-21T04:42:45.175Z,99.90
2017-08-21T04:45:13.569Z,99.90
2017-08-21T04:47:41.832Z,99.90
2017-08-21T04:50:10.180Z,99.90
2017-08-21T04:52:38.457Z,99.90
2017-08-21T04:55:06.721Z,99.90
2017-08-21T04:57:35.066Z,99.90
2017-08-21T05:00:03.322Z,99.90
2017-08-21T05:02:31.608Z,99.90
2017-08-21T05:04:59.876Z,99.90
2017-08-21T05:07:28.258Z,99.90
2017-08-21T05:09:56.552Z,99.90
2017-08-21T05:12:24.877Z,99.90
2017-08-21T05:14:53.162Z,99.90
2017-08-21T05:17:21.474Z,99.90
2017-08-21T05:19:49.862Z,99.90
2017-08-21T05:22:18.917Z,99.90
2017-08-21T05:24:47.333Z,99.90
2017-08-21T05:27:15.576Z,99.90
2017-08-21T05:29:43.985Z,99.90
2017-08-21T05:32:12.260Z,99.90
2017-08-21T05:34:40.539Z,99.90
2017-08-21T05:37:08.814Z,99.90
2017-08-21T05:39:37.210Z,99.90
2017-08-21T05:42:06.246Z,99.90
2017-08-21T05:44:34.557Z,99.90
2017-08-21T05:47:02.836Z,99.90
2017-08-21T05:49:31.113Z,99.90
2017-08-21T05:51:59.488Z,99.90
2017-08-21T05:54:27.772Z,99.90
2017-08-21T05:56:56.051Z,99.90
2017-08-21T05:59:24.405Z,99.90
2017-08-21T06:01:52.728Z,99.90
2017-08-21T06:04:21.104Z,99.90
2017-08-21T06:06:49.404Z,99.90
2017-08-21T06:09:17.752Z,99.90
2017-08-21T06:11:46.056Z,99.90
2017-08-21T06:14:14.334Z,99.90
2017-08-21T06:16:42.583Z,99.90
2017-08-21T06:19:10.867Z,99.90
2017-08-21T06:21:39.906Z,99.90
2017-08-21T06:24:08.214Z,99.90
2017-08-21T06:26:36.505Z,99.90
2017-08-21T06:29:04.859Z,99.90
2017-08-21T06:31:33.132Z,99.90
2017-08-21T06:34:01.386Z,99.90
2017-08-21T06:36:29.696Z,99.90
2017-08-21T06:38:57.967Z,99.90
2017-08-21T06:41:26.357Z,99.90
2017-08-21T06:43:54.670Z,99.90
2017-08-21T06:46:23.722Z,99.90
2017-08-21T06:48:52.010Z,99.90
2017-08-21T06:51:20.390Z,99.90
2017-08-21T06:53:48.656Z,99.90
2017-08-21T06:56:16.966Z,99.90
2017-08-21T06:58:45.250Z,99.90
2017-08-21T07:01:13.497Z,99.90
2017-08-21T07:03:41.872Z,99.90
2017-08-21T07:06:10.148Z,99.90
2017-08-21T07:08:38.421Z,99.90
2017-08-21T07:11:06.700Z,99.90
2017-08-21T07:13:35.188Z,99.90
2017-08-21T07:16:03.475Z,99.90
2017-08-21T07:18:31.760Z,99.90
2017-08-21T07:21:00.030Z,99.90
2017-08-21T07:23:28.289Z,99.90
2017-08-21T07:25:57.348Z,99.90
2017-08-21T07:28:25.628Z,99.90
2017-08-21T07:30:53.920Z,99.90
2017-08-21T07:33:22.209Z,99.90
2017-08-21T07:35:50.566Z,99.90
2017-08-21T07:38:18.843Z,99.90
2017-08-21T07:40:47.148Z,99.90
2017-08-21T07:43:15.508Z,99.90
2017-08-21T07:45:43.778Z,99.90
2017-08-21T07:48:12.221Z,99.90
2017-08-21T07:50:40.490Z,99.90
2017-08-21T07:53:08.831Z,99.90
2017-08-21T07:55:37.137Z,99.90
2017-08-21T07:58:06.244Z,99.90
2017-08-21T08:00:34.596Z,99.90
2017-08-21T08:03:02.940Z,99.90
2017-08-21T08:05:31.336Z,99.90
2017-08-21T08:07:59.604Z,99.90
2017-08-21T08:10:28.004Z,99.90
2017-08-21T08:12:56.257Z,99.90
2017-08-21T08:15:24.643Z,99.90
2017-08-21T08:17:52.912Z,99.90
2017-08-21T08:20:21.298Z,99.90
2017-08-21T08:22:49.568Z,99.90
2017-08-21T08:25:17.861Z,99.90
2017-08-21T08:27:46.233Z,99.90
2017-08-21T08:30:14.493Z,99.90
2017-08-21T08:32:42.779Z,99.90
2017-08-21T08:35:11.064Z,99.90
2017-08-21T08:37:39.446Z,99.90
2017-08-21T08:40:07.704Z,99.90
2017-08-21T08:42:36.114Z,99.90
2017-08-21T08:45:04.425Z,99.90
2017-08-21T08:47:33.564Z,99.90
2017-08-21T08:50:01.840Z,99.90
2017-08-21T08:52:30.225Z,99.90
2017-08-21T08:54:58.502Z,99.90
2017-08-21T08:57:26.760Z,99.90
2017-08-21T08:59:55.082Z,99.90
2017-08-21T09:02:23.348Z,99.90
2017-08-21T09:04:51.728Z,99.90
2017-08-21T09:07:19.990Z,99.90
2017-08-21T09:09:48.478Z,99.90
2017-08-21T09:12:16.746Z,99.90
2017-08-21T09:14:45.063Z,99.90
2017-08-21T09:17:14.122Z,99.90
2017-08-21T09:19:42.453Z,99.90
2017-08-21T09:22:10.784Z,99.90
2017-08-21T09:24:39.030Z,99.90
2017-08-21T09:27:07.314Z,99.90
2017-08-21T09:29:35.614Z,99.90
2017-08-21T09:32:03.994Z,99.90
2017-08-21T09:34:32.266Z,99.90
2017-08-21T09:37:00.676Z,99.90
2017-08-21T09:39:29.750Z,99.90
2017-08-21T09:41:58.022Z,99.90
2017-08-21T09:44:26.402Z,99.90
2017-08-21T09:46:55.083Z,99.90
2017-08-21T09:49:23.368Z,99.90
2017-08-21T09:51:51.649Z,99.90
2017-08-21T09:54:20.034Z,99.90
2017-08-21T09:56:48.298Z,99.90
2017-08-21T09:59:53.445Z,99.90
2017-08-21T10:02:21.726Z,99.90
2017-08-21T10:04:50.110Z,99.90
2017-08-21T10:07:18.404Z,99.90
2017-08-21T10:09:46.753Z,99.90
2017-08-21T10:12:15.025Z,99.90
2017-08-21T10:14:43.309Z,99.90
2017-08-21T10:17:11.588Z,99.90
2017-08-21T10:19:39.861Z,99.90
2017-08-21T10:22:08.150Z,99.90
2017-08-21T10:24:36.511Z,99.90
2017-08-21T10:27:04.898Z,99.90
2017-08-21T10:29:33.255Z,99.90
2017-08-21T10:32:01.558Z,99.90
2017-08-21T10:34:29.827Z,99.90
2017-08-21T10:36:58.209Z,99.90
2017-08-21T10:39:26.490Z,99.90
2017-08-21T10:41:54.865Z,99.90
2017-08-21T10:44:23.153Z,99.90
2017-08-21T10:46:51.481Z,99.90
2017-08-21T10:49:19.873Z,99.90
2017-08-21T10:51:48.135Z,99.90
2017-08-21T10:54:16.420Z,99.90
2017-08-21T10:56:44.702Z,99.90
2017-08-21T10:59:13.073Z,99.90
2017-08-21T11:01:41.356Z,99.90
2017-08-21T11:04:09.605Z,99.90
2017-08-21T11:06:37.915Z,99.90
2017-08-21T11:09:06.174Z,99.90
2017-08-21T11:11:34.471Z,99.90
2017-08-21T11:14:02.755Z,99.90
2017-08-21T11:16:31.124Z,99.90
2017-08-21T11:18:59.402Z,99.90
2017-08-21T11:21:27.708Z,99.90
2017-08-21T11:23:55.956Z,99.90
2017-08-21T11:26:24.225Z,99.90
2017-08-21T11:28:52.508Z,99.90
2017-08-21T11:31:20.768Z,99.90
2017-08-21T11:33:49.141Z,99.90
2017-08-21T11:36:17.438Z,99.90
2017-08-21T11:38:45.726Z,99.90
2017-08-21T11:41:13.980Z,99.90
2017-08-21T11:43:42.373Z,99.90
2017-08-21T11:46:10.667Z,99.00
2017-08-21T11:48:39.033Z,95.60
2017-08-21T11:51:07.313Z,95.30
2017-08-21T11:53:35.576Z,95.70
2017-08-21T11:56:03.970Z,97.10
2017-08-21T11:58:32.256Z,96.00
2017-08-21T12:01:00.621Z,94.70
2017-08-21T12:03:28.899Z,93.80
2017-08-21T12:05:57.275Z,93.00
2017-08-21T12:08:25.564Z,92.80
2017-08-21T12:10:53.938Z,92.50
2017-08-21T12:13:22.197Z,93.20
2017-08-21T12:15:50.547Z,92.50
2017-08-21T12:18:18.871Z,93.30
2017-08-21T12:20:47.142Z,94.80
2017-08-21T12:23:15.530Z,95.60
2017-08-21T12:25:43.788Z,96.40
2017-08-21T12:28:12.076Z,97.70
2017-08-21T12:30:40.463Z,98.80
2017-08-21T12:33:08.747Z,99.50
2017-08-21T12:35:36.998Z,98.80
2017-08-21T12:38:05.378Z,96.80
2017-08-21T12:40:33.661Z,96.10
2017-08-21T12:43:01.942Z,96.50
2017-08-21T12:45:30.355Z,97.00
2017-08-21T12:47:58.706Z,95.90
2017-08-21T12:50:27.081Z,96.30
2017-08-21T12:52:55.353Z,96.70
2017-08-21T12:55:23.748Z,95.90
2017-08-21T12:57:52.119Z,95.90
2017-08-21T13:00:20.491Z,96.70
2017-08-21T13:02:48.773Z,96.20
2017-08-21T13:05:17.165Z,93.10
2017-08-21T13:07:45.430Z,91.50
2017-08-21T13:10:13.680Z,90.40
2017-08-21T13:12:41.970Z,85.70
2017-08-21T13:15:10.267Z,78.80
2017-08-21T13:17:38.647Z,72.90
2017-08-21T13:20:06.910Z,71.70
2017-08-21T13:22:35.211Z,75.30
2017-08-21T13:25:03.574Z,73.20
2017-08-21T13:27:31.958Z,75.20
2017-08-21T13:30:00.231Z,79.70
2017-08-21T13:32:28.604Z,83.90
2017-08-21T13:34:56.897Z,83.80
2017-08-21T13:37:25.166Z,83.50
2017-08-21T13:39:53.456Z,84.30
2017-08-21T13:42:21.846Z,84.90
2017-08-21T13:44:50.112Z,84.30
2017-08-21T13:47:18.578Z,84.90
2017-08-21T13:49:46.961Z,85.30
2017-08-21T13:52:15.235Z,84.60
2017-08-21T13:54:43.520Z,86.50
2017-08-21T13:57:11.789Z,86.60
2017-08-21T13:59:40.174Z,87.10
2017-08-21T14:02:08.433Z,88.90
2017-08-21T14:04:36.697Z,89.80
2017-08-21T14:07:05.013Z,91.50
2017-08-21T14:09:33.385Z,93.80
2017-08-21T14:12:01.667Z,95.50
2017-08-21T14:14:29.916Z,97.80
2017-08-21T14:16:58.207Z,99.90
2017-08-21T14:19:26.493Z,99.90
2017-08-21T14:21:54.781Z,99.90
2017-08-21T14:24:23.144Z,99.90
2017-08-21T14:26:51.527Z,99.90
2017-08-21T14:29:19.806Z,99.90
2017-08-21T14:31:48.069Z,99.90
2017-08-21T14:34:16.462Z,99.90
2017-08-21T14:36:44.736Z,99.90
2017-08-21T14:39:13.120Z,99.90
2017-08-21T14:41:41.386Z,99.90
2017-08-21T14:44:09.778Z,99.90
2017-08-21T14:46:38.037Z,99.90
2017-08-21T14:49:06.369Z,99.90
2017-08-21T14:51:34.713Z,99.90
2017-08-21T14:54:03.095Z,99.90
2017-08-21T14:56:31.353Z,99.90
2017-08-21T14:58:59.739Z,99.90
2017-08-21T15:01:28.016Z,99.90
2017-08-21T15:03:56.293Z,99.90
2017-08-21T15:06:24.670Z,99.90
2017-08-21T15:08:52.949Z,99.90
2017-08-21T15:11:21.341Z,99.90
2017-08-21T15:13:49.710Z,99.90
2017-08-21T15:16:18.093Z,99.90
2017-08-21T15:18:46.363Z,99.90
2017-08-21T15:21:14.745Z,95.70
2017-08-21T15:23:43.004Z,94.00
2017-08-21T15:26:11.276Z,94.50
2017-08-21T15:28:39.576Z,93.60
2017-08-21T15:31:07.866Z,94.90
2017-08-21T15:33:36.145Z,95.20
2017-08-21T15:36:04.410Z,95.10
2017-08-21T15:38:32.703Z,94.90
2017-08-21T15:41:01.066Z,96.50
2017-08-21T15:43:29.442Z,97.80
2017-08-21T15:45:57.697Z,99.20
2017-08-21T15:48:25.995Z,99.30
2017-08-21T15:50:54.298Z,99.90
2017-08-21T15:53:22.561Z,99.90
2017-08-21T15:55:50.841Z,99.90
2017-08-21T15:58:19.211Z,99.90
2017-08-21T16:00:47.507Z,99.90
2017-08-21T16:03:15.784Z,99.90
2017-08-21T16:05:44.060Z,99.90
2017-08-21T16:08:12.340Z,99.90
2017-08-21T16:10:40.684Z,99.90
2017-08-21T16:13:08.955Z,99.90
2017-08-21T16:15:37.232Z,99.90
2017-08-21T16:18:05.619Z,99.90
2017-08-21T16:20:34.090Z,99.90
2017-08-21T16:23:02.471Z,99.90
2017-08-21T16:25:30.856Z,99.90
2017-08-21T16:27:59.223Z,99.90
2017-08-21T16:30:27.497Z,99.90
2017-08-21T16:32:55.894Z,99.90
2017-08-21T16:35:24.160Z,99.90
2017-08-21T16:37:52.565Z,99.90
2017-08-21T16:40:20.815Z,99.90
2017-08-21T16:42:49.127Z,99.90
2017-08-21T16:45:17.507Z,99.90
2017-08-21T16:47:45.860Z,99.90
2017-08-21T16:50:14.237Z,99.90
2017-08-21T16:52:42.498Z,99.90
2017-08-21T16:55:10.785Z,99.90
2017-08-21T16:57:39.067Z,99.90
2017-08-21T17:00:07.374Z,99.90
2017-08-21T17:02:35.662Z,99.90
2017-08-21T17:05:03.996Z,99.90
2017-08-21T17:07:32.378Z,99.90
2017-08-21T17:10:00.771Z,99.90
2017-08-21T17:12:29.034Z,99.90
2017-08-21T17:14:57.362Z,99.90
2017-08-21T17:17:25.746Z,99.90
2017-08-21T17:19:54.022Z,99.90
2017-08-21T17:22:22.402Z,99.90
2017-08-21T17:24:50.678Z,99.90
2017-08-21T17:27:19.063Z,99.90
2017-08-21T17:29:47.330Z,99.90
2017-08-21T17:32:15.703Z,99.90
2017-08-21T17:34:44.088Z,99.90
2017-08-21T17:37:12.417Z,99.90
2017-08-21T17:39:40.704Z,99.90
2017-08-21T17:42:09.036Z,99.90
2017-08-21T17:44:37.349Z,99.90
2017-08-21T17:47:05.634Z,99.90
2017-08-21T17:49:34.015Z,99.90
2017-08-21T17:52:02.380Z,99.90
2017-08-21T17:54:30.692Z,99.90
2017-08-21T17:56:59.033Z,99.90
2017-08-21T17:59:27.428Z,99.90
2017-08-21T18:01:55.802Z,99.90
2017-08-21T18:04:24.188Z,99.90
2017-08-21T18:06:52.552Z,99.90
2017-08-21T18:09:20.940Z,99.90
2017-08-21T18:11:49.315Z,99.90
2017-08-21T18:14:17.573Z,99.90
2017-08-21T18:16:45.868Z,99.90
2017-08-21T18:19:14.129Z,99.90
2017-08-21T18:21:42.569Z,99.90
2017-08-21T18:24:10.874Z,99.90
2017-08-21T18:26:39.174Z,99.90
2017-08-21T18:29:07.445Z,99.90
2017-08-21T18:31:35.845Z,99.90
2017-08-21T18:34:04.198Z,99.90
2017-08-21T18:36:32.576Z,99.90
2017-08-21T18:39:00.833Z,99.90
2017-08-21T18:41:29.115Z,99.90
2017-08-21T18:43:57.384Z,99.90
2017-08-21T18:46:25.670Z,99.90
2017-08-21T18:48:54.074Z,99.90
2017-08-21T18:51:22.425Z,99.90
2017-08-21T18:53:50.792Z,99.90
2017-08-21T18:56:19.046Z,99.90
2017-08-21T18:58:47.469Z,99.90
2017-08-21T19:01:15.771Z,99.90
2017-08-21T19:03:44.072Z,99.90
2017-08-21T19:06:12.395Z,99.90
2017-08-21T19:08:40.770Z,99.90
2017-08-21T19:11:09.063Z,99.90
2017-08-21T19:13:37.519Z,99.90
2017-08-21T19:16:05.787Z,99.90
2017-08-21T19:18:34.164Z,99.90
2017-08-21T19:21:02.483Z,99.90
2017-08-21T19:23:30.800Z,99.90
2017-08-21T19:25:59.077Z,99.90
2017-08-21T19:28:27.354Z,99.90
2017-08-21T19:30:55.641Z,99.90
2017-08-21T19:33:23.934Z,99.90
2017-08-21T19:35:52.194Z,99.90
2017-08-21T19:38:20.482Z,99.90
2017-08-21T19:40:48.759Z,99.90
2017-08-21T19:43:17.140Z,99.90
2017-08-21T19:45:45.405Z,99.90
2017-08-21T19:48:13.714Z,99.90
2017-08-21T19:50:42.001Z,99.90
2017-08-21T19:53:10.262Z,99.90
2017-08-21T19:55:38.549Z,99.90
2017-08-21T19:58:06.820Z,99.90
2017-08-21T20:00:35.101Z,99.90
2017-08-21T20:03:03.355Z,99.90
2017-08-21T20:05:31.735Z,99.90
2017-08-21T20:08:00.106Z,99.90
2017-08-21T20:10:28.407Z,99.90
2017-08-21T20:12:56.681Z,99.90
2017-08-21T20:15:24.945Z,99.90
2017-08-21T20:17:53.317Z,99.90
2017-08-21T20:20:21.679Z,99.90
2017-08-21T20:22:50.171Z,99.90
2017-08-21T20:25:18.449Z,99.90
2017-08-21T20:27:46.743Z,99.90
2017-08-21T20:30:15.025Z,99.90
2017-08-21T20:32:43.390Z,99.90
2017-08-21T20:35:11.748Z,99.90
2017-08-21T20:37:40.039Z,99.90
2017-08-21T20:40:08.430Z,99.90
2017-08-21T20:42:36.712Z,99.90
2017-08-21T20:45:05.097Z,99.90
2017-08-21T20:47:33.347Z,99.90
2017-08-21T20:50:01.630Z,99.90
2017-08-21T20:52:29.921Z,99.90
2017-08-21T20:54:58.248Z,99.90
2017-08-21T20:57:26.537Z,99.90
2017-08-21T20:59:54.843Z,99.90
2017-08-21T21:02:23.212Z,99.90
2017-08-21T21:04:51.514Z,99.90
2017-08-21T21:07:19.898Z,99.90
2017-08-21T21:09:48.254Z,99.90
2017-08-21T21:12:16.535Z,99.90
2017-08-21T21:14:44.805Z,99.90
2017-08-21T21:17:13.226Z,99.90
2017-08-21T21:19:41.494Z,99.90
2017-08-21T21:22:09.846Z,99.90
2017-08-21T21:24:38.153Z,99.90
2017-08-21T21:27:06.409Z,99.90
2017-08-21T21:29:34.777Z,99.90
2017-08-21T21:32:03.045Z,99.90
2017-08-21T21:34:31.431Z,99.90
2017-08-21T21:36:59.705Z,99.90
2017-08-21T21:39:28.111Z,99.90
2017-08-21T21:41:56.464Z,99.90
2017-08-21T21:44:24.862Z,99.90
2017-08-21T21:46:53.223Z,99.90
2017-08-21T21:49:21.500Z,99.90
2017-08-21T21:51:49.884Z,99.90
2017-08-21T21:54:18.158Z,99.90
2017-08-21T21:56:46.639Z,99.90
2017-08-21T21:59:14.943Z,99.90
2017-08-21T22:01:43.293Z,99.90
2017-08-21T22:04:11.562Z,99.90
2017-08-21T22:06:39.957Z,99.90
2017-08-21T22:09:08.346Z,99.90
2017-08-21T22:11:36.616Z,99.90
2017-08-21T22:14:04.993Z,99.90
2017-08-21T22:16:33.364Z,99.90
2017-08-21T22:19:01.663Z,99.90
2017-08-21T22:21:30.032Z,99.90
2017-08-21T22:23:58.313Z,99.90
2017-08-21T22:26:26.599Z,99.90
2017-08-21T22:28:54.961Z,99.90
2017-08-21T22:31:23.218Z,99.90
2017-08-21T22:33:51.515Z,99.90
2017-08-21T22:36:19.816Z,99.90
2017-08-21T22:38:48.191Z,99.90
2017-08-21T22:41:16.463Z,99.90
2017-08-21T22:43:44.836Z,99.90
2017-08-21T22:46:13.243Z,99.90
2017-08-21T22:48:41.604Z,99.90
2017-08-21T22:51:09.906Z,99.90
2017-08-21T22:53:38.340Z,99.90
2017-08-21T22:56:06.728Z,99.90
2017-08-21T22:58:35.112Z,99.90
2017-08-21T23:03:56.531Z,99.90
2017-08-21T23:06:24.824Z,99.90
2017-08-21T23:08:53.198Z,99.90
2017-08-21T23:11:21.574Z,99.90
2017-08-21T23:13:49.827Z,99.90
2017-08-21T23:16:18.138Z,99.90
2017-08-21T23:18:46.418Z,99.90
2017-08-21T23:21:14.780Z,99.90
2017-08-21T23:23:43.069Z,99.90
2017-08-21T23:26:11.347Z,99.90
2017-08-21T23:28:39.625Z,99.90
2017-08-21T23:31:08.006Z,99.90
2017-08-21T23:33:36.282Z,99.90
2017-08-21T23:36:04.547Z,99.90
2017-08-21T23:38:32.928Z,99.90
2017-08-21T23:41:02.238Z,99.90
2017-08-21T23:43:30.510Z,99.90
2017-08-21T23:45:58.829Z,99.90
2017-08-21T23:48:27.098Z,99.90
2017-08-21T23:50:55.418Z,99.90
2017-08-21T23:53:23.773Z,99.90
2017-08-21T23:55:52.028Z,99.90
2017-08-21T23:58:20.317Z,99.90
